IIM047 YPAD-YMEN
Flight info
| Callsign | IIM047 |
|---|---|
| Flight time | N/A |
| Altitude | 39000 |
| Route | AD V255 BENDO Y218 TYNDI Y53 ALAXO W382 ESDAN |
| Aircraft | P180/L-SBDFGM3RWXY/LB1 |
Departure
| Time | N/A |
|---|---|
| Airport | Adelaide International Airport (YPAD) |
Arrival
| Time | 2026-04-16 15:13 |
|---|---|
| Airport | Melbourne Essendon Airport (YMEN) |
| Time | Latitude | Longitude | Altitude | Speed | Heading |
|---|---|---|---|---|---|
| 2026-04-16 13:57 | -35.15824 | 139.23498 | 18539 ft | 254 kts | 115° |
| 2026-04-16 13:57 | -35.16453 | 139.25523 | 18800 ft | 255 kts | 115° |
| 2026-04-16 13:58 | -35.17715 | 139.29589 | 19309 ft | 257 kts | 115° |
| 2026-04-16 13:58 | -35.18349 | 139.31633 | 19568 ft | 258 kts | 115° |
| 2026-04-16 13:58 | -35.18988 | 139.33690 | 19818 ft | 259 kts | 115° |
| 2026-04-16 13:58 | -35.19627 | 139.35757 | 20068 ft | 260 kts | 115° |
| 2026-04-16 13:59 | -35.20270 | 139.37832 | 20321 ft | 262 kts | 115° |
| 2026-04-16 13:59 | -35.20914 | 139.39918 | 20577 ft | 263 kts | 115° |
| 2026-04-16 13:59 | -35.21561 | 139.42013 | 20834 ft | 264 kts | 115° |
| 2026-04-16 13:59 | -35.22213 | 139.44117 | 21088 ft | 265 kts | 115° |
| 2026-04-16 14:00 | -35.22863 | 139.46229 | 21348 ft | 266 kts | 115° |
| 2026-04-16 14:00 | -35.23519 | 139.48353 | 21614 ft | 268 kts | 115° |
| 2026-04-16 14:00 | -35.24184 | 139.50482 | 21881 ft | 268 kts | 118° |
| 2026-04-16 14:00 | -35.25188 | 139.52338 | 22126 ft | 259 kts | 139° |
| 2026-04-16 14:01 | -35.26373 | 139.54005 | 22399 ft | 261 kts | 139° |
| 2026-04-16 14:01 | -35.27544 | 139.55713 | 22662 ft | 263 kts | 137° |
| 2026-04-16 14:01 | -35.28709 | 139.57444 | 22932 ft | 264 kts | 138° |
| 2026-04-16 14:01 | -35.29881 | 139.59180 | 23201 ft | 265 kts | 138° |
| 2026-04-16 14:02 | -35.31062 | 139.60918 | 23471 ft | 266 kts | 138° |
| 2026-04-16 14:02 | -35.32247 | 139.62667 | 23729 ft | 267 kts | 138° |
| 2026-04-16 14:02 | -35.33438 | 139.64424 | 23951 ft | 269 kts | 138° |
| 2026-04-16 14:02 | -35.34619 | 139.66170 | 24168 ft | 270 kts | 138° |
| 2026-04-16 14:03 | -35.35823 | 139.67948 | 24387 ft | 272 kts | 138° |
| 2026-04-16 14:03 | -35.37035 | 139.69739 | 24610 ft | 274 kts | 138° |
| 2026-04-16 14:03 | -35.38253 | 139.71542 | 24837 ft | 275 kts | 138° |
| 2026-04-16 14:03 | -35.39478 | 139.73356 | 25065 ft | 277 kts | 139° |
| 2026-04-16 14:04 | -35.40709 | 139.75180 | 25303 ft | 279 kts | 139° |
| 2026-04-16 14:04 | -35.41949 | 139.77015 | 25528 ft | 280 kts | 139° |
| 2026-04-16 14:04 | -35.43195 | 139.78863 | 25759 ft | 282 kts | 139° |
| 2026-04-16 14:04 | -35.44448 | 139.80721 | 25983 ft | 284 kts | 139° |
| 2026-04-16 14:05 | -35.45705 | 139.82588 | 26218 ft | 285 kts | 139° |
| 2026-04-16 14:05 | -35.46972 | 139.84470 | 26448 ft | 287 kts | 139° |
| 2026-04-16 14:05 | -35.48247 | 139.86364 | 26683 ft | 289 kts | 139° |
| 2026-04-16 14:05 | -35.49529 | 139.88268 | 26921 ft | 290 kts | 139° |
| 2026-04-16 14:06 | -35.50817 | 139.90186 | 27159 ft | 292 kts | 139° |
| 2026-04-16 14:06 | -35.52116 | 139.92119 | 27400 ft | 294 kts | 139° |
| 2026-04-16 14:06 | -35.53419 | 139.94061 | 27648 ft | 295 kts | 139° |
| 2026-04-16 14:06 | -35.54726 | 139.96009 | 27908 ft | 297 kts | 139° |
| 2026-04-16 14:07 | -35.56047 | 139.97973 | 28149 ft | 300 kts | 140° |
| 2026-04-16 14:07 | -35.57376 | 139.99957 | 28393 ft | 301 kts | 139° |
| 2026-04-16 14:07 | -35.58706 | 140.01947 | 28672 ft | 301 kts | 140° |
| 2026-04-16 14:07 | -35.60040 | 140.03937 | 28956 ft | 302 kts | 140° |
| 2026-04-16 14:08 | -35.61374 | 140.05929 | 29254 ft | 302 kts | 140° |
| 2026-04-16 14:08 | -35.62708 | 140.07927 | 29554 ft | 302 kts | 140° |
| 2026-04-16 14:08 | -35.64047 | 140.09928 | 29894 ft | 303 kts | 140° |
| 2026-04-16 14:08 | -35.65385 | 140.11929 | 30246 ft | 303 kts | 140° |
| 2026-04-16 14:09 | -35.66723 | 140.13936 | 30531 ft | 304 kts | 140° |
| 2026-04-16 14:09 | -35.68065 | 140.15944 | 30816 ft | 304 kts | 140° |
| 2026-04-16 14:09 | -35.69389 | 140.17931 | 31098 ft | 305 kts | 140° |
| 2026-04-16 14:09 | -35.70733 | 140.19949 | 31393 ft | 305 kts | 140° |
| 2026-04-16 14:10 | -35.72080 | 140.21969 | 31706 ft | 306 kts | 140° |
| 2026-04-16 14:10 | -35.73426 | 140.23990 | 31989 ft | 306 kts | 140° |
| 2026-04-16 14:10 | -35.74772 | 140.26016 | 32240 ft | 306 kts | 140° |
| 2026-04-16 14:10 | -35.76122 | 140.28047 | 32483 ft | 307 kts | 140° |
| 2026-04-16 14:11 | -35.77476 | 140.30083 | 32733 ft | 307 kts | 140° |
| 2026-04-16 14:11 | -35.78829 | 140.32119 | 32988 ft | 307 kts | 140° |
| 2026-04-16 14:11 | -35.80182 | 140.34158 | 33231 ft | 308 kts | 140° |
| 2026-04-16 14:11 | -35.81538 | 140.36200 | 33477 ft | 308 kts | 140° |
| 2026-04-16 14:12 | -35.82890 | 140.38242 | 33720 ft | 308 kts | 140° |
| 2026-04-16 14:12 | -35.84247 | 140.40291 | 33954 ft | 309 kts | 140° |
| 2026-04-16 14:12 | -35.85605 | 140.42341 | 34188 ft | 309 kts | 140° |
| 2026-04-16 14:12 | -35.86968 | 140.44399 | 34363 ft | 311 kts | 140° |
| 2026-04-16 14:13 | -35.88335 | 140.46467 | 34543 ft | 311 kts | 140° |
| 2026-04-16 14:13 | -35.89705 | 140.48539 | 34721 ft | 312 kts | 140° |
| 2026-04-16 14:13 | -35.91080 | 140.50618 | 34893 ft | 313 kts | 140° |
| 2026-04-16 14:13 | -35.92452 | 140.52700 | 35061 ft | 314 kts | 140° |
| 2026-04-16 14:14 | -35.93832 | 140.54792 | 35230 ft | 314 kts | 140° |
| 2026-04-16 14:14 | -35.95214 | 140.56885 | 35404 ft | 315 kts | 140° |
| 2026-04-16 14:14 | -35.96597 | 140.58986 | 35567 ft | 315 kts | 140° |
| 2026-04-16 14:14 | -35.97983 | 140.61090 | 35726 ft | 316 kts | 140° |
| 2026-04-16 14:15 | -35.99368 | 140.63195 | 35876 ft | 317 kts | 140° |
| 2026-04-16 14:15 | -36.00760 | 140.65312 | 36043 ft | 318 kts | 140° |
| 2026-04-16 14:15 | -36.02156 | 140.67434 | 36196 ft | 319 kts | 140° |
| 2026-04-16 14:15 | -36.03558 | 140.69567 | 36366 ft | 319 kts | 140° |
| 2026-04-16 14:16 | -36.04957 | 140.71700 | 36510 ft | 320 kts | 140° |
| 2026-04-16 14:16 | -36.06339 | 140.73807 | 36647 ft | 320 kts | 140° |
| 2026-04-16 14:16 | -36.07764 | 140.75979 | 36789 ft | 321 kts | 140° |
| 2026-04-16 14:16 | -36.09147 | 140.78090 | 36922 ft | 321 kts | 140° |
| 2026-04-16 14:17 | -36.10553 | 140.80237 | 37052 ft | 321 kts | 140° |
| 2026-04-16 14:17 | -36.11960 | 140.82389 | 37184 ft | 322 kts | 140° |
| 2026-04-16 14:17 | -36.13370 | 140.84542 | 37312 ft | 322 kts | 140° |
| 2026-04-16 14:17 | -36.14780 | 140.86700 | 37437 ft | 323 kts | 140° |
| 2026-04-16 14:18 | -36.16192 | 140.88863 | 37575 ft | 323 kts | 140° |
| 2026-04-16 14:18 | -36.17606 | 140.91026 | 37696 ft | 323 kts | 140° |
| 2026-04-16 14:18 | -36.19017 | 140.93191 | 37814 ft | 324 kts | 140° |
| 2026-04-16 14:18 | -36.20433 | 140.95361 | 37931 ft | 324 kts | 140° |
| 2026-04-16 14:19 | -36.21859 | 140.97522 | 38046 ft | 321 kts | 144° |
| 2026-04-16 14:19 | -36.22898 | 140.98777 | 38119 ft | 311 kts | 154° |
| 2026-04-16 14:19 | -36.24598 | 141.00346 | 38226 ft | 298 kts | 166° |
| 2026-04-16 14:19 | -36.26386 | 141.01512 | 38331 ft | 283 kts | 177° |
| 2026-04-16 14:20 | -36.28198 | 141.02417 | 38429 ft | 281 kts | 178° |
| 2026-04-16 14:20 | -36.30015 | 141.03356 | 38529 ft | 283 kts | 177° |
| 2026-04-16 14:20 | -36.31825 | 141.04294 | 38639 ft | 283 kts | 177° |
| 2026-04-16 14:20 | -36.33646 | 141.05229 | 38729 ft | 283 kts | 178° |
| 2026-04-16 14:21 | -36.35460 | 141.06157 | 38815 ft | 283 kts | 178° |
| 2026-04-16 14:21 | -36.37282 | 141.07092 | 38922 ft | 283 kts | 177° |
| 2026-04-16 14:21 | -36.39096 | 141.08028 | 39011 ft | 282 kts | 177° |
| 2026-04-16 14:21 | -36.40902 | 141.08957 | 39090 ft | 282 kts | 177° |
| 2026-04-16 14:22 | -36.42725 | 141.09900 | 39099 ft | 285 kts | 177° |
| 2026-04-16 14:22 | -36.44570 | 141.10836 | 39110 ft | 288 kts | 177° |
| 2026-04-16 14:22 | -36.46442 | 141.11797 | 39113 ft | 292 kts | 176° |
| 2026-04-16 14:22 | -36.48327 | 141.12774 | 39108 ft | 296 kts | 176° |
| 2026-04-16 14:23 | -36.50238 | 141.13760 | 39104 ft | 299 kts | 176° |
| 2026-04-16 14:23 | -36.52167 | 141.14755 | 39107 ft | 301 kts | 176° |
| 2026-04-16 14:23 | -36.56077 | 141.16775 | 39113 ft | 307 kts | 175° |
| 2026-04-16 14:24 | -36.60048 | 141.18828 | 39103 ft | 311 kts | 175° |
| 2026-04-16 14:24 | -36.64080 | 141.20914 | 39104 ft | 316 kts | 174° |
| 2026-04-16 14:25 | -36.68139 | 141.23021 | 39104 ft | 319 kts | 174° |
| 2026-04-16 14:25 | -36.72281 | 141.25166 | 39102 ft | 322 kts | 174° |
| 2026-04-16 14:26 | -36.76406 | 141.27311 | 39105 ft | 324 kts | 174° |
| 2026-04-16 14:26 | -36.80576 | 141.29478 | 39104 ft | 326 kts | 174° |
| 2026-04-16 14:27 | -36.84770 | 141.31664 | 39135 ft | 327 kts | 174° |
| 2026-04-16 14:27 | -36.88996 | 141.33863 | 39102 ft | 330 kts | 174° |
| 2026-04-16 14:28 | -36.93240 | 141.36079 | 39102 ft | 331 kts | 174° |
| 2026-04-16 14:28 | -36.97498 | 141.38303 | 39101 ft | 332 kts | 174° |
| 2026-04-16 14:29 | -37.01765 | 141.40535 | 39098 ft | 332 kts | 173° |
| 2026-04-16 14:29 | -37.06032 | 141.42770 | 39099 ft | 333 kts | 173° |
| 2026-04-16 14:30 | -37.10317 | 141.45016 | 39103 ft | 335 kts | 173° |
| 2026-04-16 14:30 | -37.14614 | 141.47275 | 39104 ft | 335 kts | 173° |
| 2026-04-16 14:31 | -37.18909 | 141.49530 | 39112 ft | 335 kts | 173° |
| 2026-04-16 14:31 | -37.23200 | 141.51789 | 39127 ft | 334 kts | 173° |
| 2026-04-16 14:32 | -37.27491 | 141.54049 | 39131 ft | 335 kts | 173° |
| 2026-04-16 14:32 | -37.31776 | 141.56369 | 39132 ft | 342 kts | 168° |
| 2026-04-16 14:33 | -37.33846 | 141.57952 | 39159 ft | 354 kts | 158° |
| 2026-04-16 14:33 | -37.35788 | 141.59941 | 39159 ft | 366 kts | 148° |
| 2026-04-16 14:33 | -37.37535 | 141.62329 | 39156 ft | 376 kts | 137° |
| 2026-04-16 14:33 | -37.39142 | 141.64932 | 39161 ft | 376 kts | 137° |
| 2026-04-16 14:34 | -37.42368 | 141.70052 | 39170 ft | 376 kts | 137° |
| 2026-04-16 14:34 | -37.45595 | 141.75231 | 39170 ft | 376 kts | 137° |
| 2026-04-16 14:35 | -37.48825 | 141.80401 | 39166 ft | 376 kts | 137° |
| 2026-04-16 14:35 | -37.52050 | 141.85581 | 39190 ft | 376 kts | 137° |
| 2026-04-16 14:36 | -37.55270 | 141.90757 | 39195 ft | 375 kts | 137° |
| 2026-04-16 14:36 | -37.58489 | 141.95943 | 39190 ft | 375 kts | 137° |
| 2026-04-16 14:37 | -37.61710 | 142.01132 | 39187 ft | 375 kts | 137° |
| 2026-04-16 14:37 | -37.64920 | 142.06322 | 39217 ft | 375 kts | 137° |
| 2026-04-16 14:38 | -37.68136 | 142.11522 | 39212 ft | 376 kts | 137° |
| 2026-04-16 14:38 | -37.71347 | 142.16727 | 39204 ft | 376 kts | 137° |
| 2026-04-16 14:39 | -37.74558 | 142.21937 | 39195 ft | 376 kts | 137° |
| 2026-04-16 14:39 | -37.77761 | 142.27149 | 39194 ft | 376 kts | 137° |
| 2026-04-16 14:40 | -37.80946 | 142.32345 | 39239 ft | 376 kts | 137° |
| 2026-04-16 14:40 | -37.84139 | 142.37575 | 39245 ft | 375 kts | 137° |
| 2026-04-16 14:41 | -37.87103 | 142.43055 | 39223 ft | 387 kts | 121° |
| 2026-04-16 14:41 | -37.88017 | 142.46282 | 39211 ft | 393 kts | 105° |
| 2026-04-16 14:41 | -37.88419 | 142.49701 | 39190 ft | 393 kts | 91° |
| 2026-04-16 14:42 | -37.88287 | 142.53143 | 39195 ft | 390 kts | 76° |
| 2026-04-16 14:42 | -37.87686 | 142.56455 | 39154 ft | 384 kts | 66° |
| 2026-04-16 14:42 | -37.86096 | 142.62878 | 39159 ft | 381 kts | 64° |
| 2026-04-16 14:43 | -37.84448 | 142.69250 | 39161 ft | 381 kts | 64° |
| 2026-04-16 14:43 | -37.82784 | 142.75656 | 38871 ft | 393 kts | 64° |
| 2026-04-16 14:44 | -37.81936 | 142.79034 | 38346 ft | 412 kts | 68° |
| 2026-04-16 14:44 | -37.81381 | 142.82685 | 37797 ft | 434 kts | 80° |
| 2026-04-16 14:44 | -37.81317 | 142.86572 | 37219 ft | 451 kts | 92° |
| 2026-04-16 14:44 | -37.81686 | 142.90524 | 36622 ft | 452 kts | 99° |
| 2026-04-16 14:45 | -37.82150 | 142.94450 | 36039 ft | 451 kts | 97° |
| 2026-04-16 14:45 | -37.82359 | 142.98390 | 35447 ft | 449 kts | 89° |
| 2026-04-16 14:45 | -37.82328 | 143.02336 | 34869 ft | 448 kts | 86° |
| 2026-04-16 14:45 | -37.82264 | 143.06281 | 34262 ft | 449 kts | 88° |
| 2026-04-16 14:46 | -37.82378 | 143.10224 | 33628 ft | 448 kts | 92° |
| 2026-04-16 14:46 | -37.82557 | 143.14146 | 33037 ft | 445 kts | 91° |
| 2026-04-16 14:46 | -37.82630 | 143.18034 | 32450 ft | 441 kts | 89° |
| 2026-04-16 14:46 | -37.82656 | 143.21910 | 31870 ft | 438 kts | 90° |
| 2026-04-16 14:47 | -37.82735 | 143.25745 | 31312 ft | 435 kts | 91° |
| 2026-04-16 14:47 | -37.82842 | 143.29562 | 30727 ft | 433 kts | 91° |
| 2026-04-16 14:47 | -37.82918 | 143.33350 | 30161 ft | 430 kts | 90° |
| 2026-04-16 14:47 | -37.82976 | 143.37117 | 29539 ft | 426 kts | 90° |
| 2026-04-16 14:48 | -37.83047 | 143.40838 | 28981 ft | 420 kts | 91° |
| 2026-04-16 14:48 | -37.83122 | 143.44463 | 28437 ft | 415 kts | 91° |
| 2026-04-16 14:48 | -37.83189 | 143.48093 | 27834 ft | 410 kts | 91° |
| 2026-04-16 14:48 | -37.83253 | 143.51681 | 27300 ft | 406 kts | 91° |
| 2026-04-16 14:49 | -37.83316 | 143.55229 | 26757 ft | 401 kts | 91° |
| 2026-04-16 14:49 | -37.83378 | 143.58731 | 26231 ft | 397 kts | 91° |
| 2026-04-16 14:49 | -37.83439 | 143.62202 | 25718 ft | 393 kts | 91° |
| 2026-04-16 14:49 | -37.83497 | 143.65638 | 25195 ft | 389 kts | 91° |
| 2026-04-16 14:50 | -37.83555 | 143.69048 | 24694 ft | 385 kts | 91° |
| 2026-04-16 14:50 | -37.83609 | 143.72449 | 24183 ft | 391 kts | 91° |
| 2026-04-16 14:50 | -37.83666 | 143.75941 | 23664 ft | 404 kts | 91° |
| 2026-04-16 14:50 | -37.83723 | 143.79549 | 23060 ft | 417 kts | 91° |
| 2026-04-16 14:51 | -37.83780 | 143.83248 | 22499 ft | 424 kts | 91° |
| 2026-04-16 14:51 | -37.83841 | 143.87007 | 21933 ft | 429 kts | 91° |
| 2026-04-16 14:51 | -37.83895 | 143.90791 | 21364 ft | 431 kts | 91° |
| 2026-04-16 14:51 | -37.83952 | 143.94582 | 20791 ft | 432 kts | 91° |
| 2026-04-16 14:53 | -37.81289 | 144.20480 | 16827 ft | 415 kts | 79° |
| 2026-04-16 14:53 | -37.80881 | 144.24079 | 16280 ft | 412 kts | 81° |
| 2026-04-16 14:54 | -37.80485 | 144.27653 | 15742 ft | 409 kts | 80° |
| 2026-04-16 14:54 | -37.80039 | 144.31193 | 15203 ft | 406 kts | 79° |
| 2026-04-16 14:54 | -37.79587 | 144.34707 | 14667 ft | 404 kts | 80° |
| 2026-04-16 14:54 | -37.79197 | 144.38220 | 14135 ft | 402 kts | 81° |
| 2026-04-16 14:55 | -37.78787 | 144.41704 | 13582 ft | 401 kts | 79° |
| 2026-04-16 14:55 | -37.78338 | 144.45173 | 13040 ft | 397 kts | 79° |
| 2026-04-16 14:55 | -37.77918 | 144.48603 | 12517 ft | 394 kts | 80° |
| 2026-04-16 14:55 | -37.77524 | 144.52023 | 12009 ft | 392 kts | 80° |
| 2026-04-16 14:56 | -37.77101 | 144.55415 | 11491 ft | 389 kts | 79° |
| 2026-04-16 14:56 | -37.76676 | 144.58786 | 10978 ft | 387 kts | 80° |
| 2026-04-16 14:56 | -37.76274 | 144.62145 | 10472 ft | 386 kts | 80° |
| 2026-04-16 14:56 | -37.75870 | 144.65483 | 9965 ft | 383 kts | 79° |
| 2026-04-16 14:57 | -37.75450 | 144.68793 | 9434 ft | 380 kts | 79° |
| 2026-04-16 14:57 | -37.75052 | 144.72030 | 8932 ft | 375 kts | 80° |
| 2026-04-16 14:57 | -37.74652 | 144.75302 | 8447 ft | 371 kts | 80° |
| 2026-04-16 14:57 | -37.74249 | 144.78496 | 7945 ft | 365 kts | 80° |
| 2026-04-16 14:58 | -37.73856 | 144.81638 | 7474 ft | 359 kts | 81° |
| 2026-04-16 14:58 | -37.73113 | 144.87647 | 6560 ft | 324 kts | 81° |
| 2026-04-16 14:58 | -37.72767 | 144.90345 | 6131 ft | 298 kts | 82° |
| 2026-04-16 14:59 | -37.72710 | 144.92850 | 5747 ft | 275 kts | 95° |
| 2026-04-16 14:59 | -37.72728 | 144.95191 | 5395 ft | 259 kts | 89° |
| 2026-04-16 14:59 | -37.72619 | 144.97393 | 5065 ft | 244 kts | 89° |
| 2026-04-16 14:59 | -37.72593 | 144.99485 | 4748 ft | 233 kts | 92° |
| 2026-04-16 15:00 | -37.72601 | 145.01489 | 4440 ft | 224 kts | 92° |
| 2026-04-16 15:00 | -37.72586 | 145.03419 | 4149 ft | 216 kts | 91° |
| 2026-04-16 15:00 | -37.72570 | 145.05288 | 3871 ft | 209 kts | 91° |
| 2026-04-16 15:00 | -37.72556 | 145.07102 | 3599 ft | 203 kts | 91° |
| 2026-04-16 15:01 | -37.72542 | 145.08871 | 3332 ft | 200 kts | 91° |
| 2026-04-16 15:01 | -37.72525 | 145.10605 | 3063 ft | 195 kts | 91° |
| 2026-04-16 15:01 | -37.72627 | 145.12254 | 2973 ft | 179 kts | 113° |
| 2026-04-16 15:01 | -37.73250 | 145.13468 | 2969 ft | 156 kts | 140° |
| 2026-04-16 15:02 | -37.73959 | 145.14425 | 2967 ft | 144 kts | 140° |
| 2026-04-16 15:02 | -37.74605 | 145.15324 | 2968 ft | 133 kts | 142° |
| 2026-04-16 15:02 | -37.75224 | 145.16149 | 2965 ft | 126 kts | 141° |
| 2026-04-16 15:02 | -37.75799 | 145.16944 | 2961 ft | 120 kts | 143° |
| 2026-04-16 15:03 | -37.76370 | 145.17720 | 2975 ft | 127 kts | 143° |
| 2026-04-16 15:03 | -37.77004 | 145.18622 | 2990 ft | 150 kts | 128° |
| 2026-04-16 15:03 | -37.77324 | 145.19964 | 2997 ft | 169 kts | 97° |
| 2026-04-16 15:03 | -37.77149 | 145.21449 | 2994 ft | 175 kts | 65° |
| 2026-04-16 15:04 | -37.76440 | 145.22684 | 2987 ft | 172 kts | 35° |
| 2026-04-16 15:04 | -37.75418 | 145.23353 | 2982 ft | 161 kts | 7° |
| 2026-04-16 15:04 | -37.74339 | 145.23406 | 2988 ft | 151 kts | 342° |
| 2026-04-16 15:04 | -37.73404 | 145.22925 | 2984 ft | 143 kts | 316° |
| 2026-04-16 15:05 | -37.72708 | 145.22068 | 2987 ft | 137 kts | 298° |
| 2026-04-16 15:05 | -37.72325 | 145.20975 | 2985 ft | 137 kts | 279° |
| 2026-04-16 15:05 | -37.72272 | 145.19789 | 2984 ft | 135 kts | 263° |
| 2026-04-16 15:05 | -37.72320 | 145.18623 | 2984 ft | 134 kts | 266° |
| 2026-04-16 15:06 | -37.72346 | 145.17460 | 2990 ft | 131 kts | 265° |
| 2026-04-16 15:06 | -37.72387 | 145.16302 | 2984 ft | 130 kts | 265° |
| 2026-04-16 15:06 | -37.72420 | 145.15174 | 2987 ft | 127 kts | 266° |
| 2026-04-16 15:06 | -37.72433 | 145.14457 | 2987 ft | 119 kts | 266° |
| 2026-04-16 15:07 | -37.72472 | 145.13434 | 2987 ft | 117 kts | 265° |
| 2026-04-16 15:07 | -37.72500 | 145.12407 | 2986 ft | 117 kts | 265° |
| 2026-04-16 15:07 | -37.72531 | 145.11380 | 2991 ft | 117 kts | 265° |
| 2026-04-16 15:07 | -37.72570 | 145.10012 | 2993 ft | 117 kts | 265° |
| 2026-04-16 15:08 | -37.72598 | 145.08993 | 2984 ft | 116 kts | 265° |
| 2026-04-16 15:08 | -37.72628 | 145.07941 | 2851 ft | 125 kts | 266° |
| 2026-04-16 15:08 | -37.72649 | 145.07194 | 2740 ft | 125 kts | 266° |
| 2026-04-16 15:08 | -37.72676 | 145.06181 | 2577 ft | 107 kts | 266° |
| 2026-04-16 15:09 | -37.72699 | 145.05289 | 2440 ft | 101 kts | 265° |
| 2026-04-16 15:09 | -37.72725 | 145.04400 | 2299 ft | 100 kts | 266° |
| 2026-04-16 15:09 | -37.72748 | 145.03541 | 2171 ft | 96 kts | 266° |
| 2026-04-16 15:09 | -37.72773 | 145.02708 | 2043 ft | 97 kts | 266° |
| 2026-04-16 15:10 | -37.72797 | 145.01851 | 1913 ft | 98 kts | 265° |
| 2026-04-16 15:10 | -37.72820 | 145.00991 | 1782 ft | 99 kts | 266° |
| 2026-04-16 15:10 | -37.72846 | 145.00072 | 1640 ft | 109 kts | 265° |
| 2026-04-16 15:10 | -37.72878 | 144.99064 | 1482 ft | 119 kts | 265° |
| 2026-04-16 15:11 | -37.72906 | 144.97990 | 1314 ft | 124 kts | 268° |
| 2026-04-16 15:11 | -37.72929 | 144.96905 | 1135 ft | 123 kts | 266° |
| 2026-04-16 15:11 | -37.72964 | 144.95827 | 971 ft | 123 kts | 266° |
| 2026-04-16 15:11 | -37.72990 | 144.94750 | 804 ft | 122 kts | 269° |
| 2026-04-16 15:12 | -37.73010 | 144.93668 | 639 ft | 123 kts | 266° |
| 2026-04-16 15:12 | -37.73069 | 144.92566 | 426 ft | 128 kts | 269° |
| 2026-04-16 15:12 | -37.73071 | 144.91479 | 318 ft | 120 kts | 268° |
| 2026-04-16 15:12 | -37.73100 | 144.90566 | 251 ft | 85 kts | 268° |
| 2026-04-16 15:13 | -37.73115 | 144.90104 | 255 ft | 27 kts | 266° |
| 2026-04-16 15:13 | -37.73056 | 144.89998 | 256 ft | 17 kts | 358° |
| 2026-04-16 15:13 | -37.73032 | 144.89998 | 256 ft | 0 kts | 360° |
| 2026-04-16 15:15 | -37.73031 | 144.89998 | 256 ft | 1 kts | 360° |
| 2026-04-16 15:15 | -37.73020 | 144.90000 | 256 ft | 3 kts | 9° |
| 2026-04-16 15:15 | -37.72994 | 144.90000 | 257 ft | 5 kts | 357° |
| 2026-04-16 15:16 | -37.72961 | 144.89991 | 258 ft | 5 kts | 322° |
| 2026-04-16 15:16 | -37.72946 | 144.89942 | 258 ft | 7 kts | 279° |
| 2026-04-16 15:16 | -37.72937 | 144.89873 | 259 ft | 9 kts | 284° |
| 2026-04-16 15:16 | -37.72898 | 144.89856 | 258 ft | 7 kts | 38° |
| 2026-04-16 15:17 | -37.72891 | 144.89903 | 259 ft | 5 kts | 98° |
| 2026-04-16 15:17 | -37.72897 | 144.89957 | 259 ft | 8 kts | 94° |
| 2026-04-16 15:17 | -37.72855 | 144.89995 | 260 ft | 10 kts | 358° |
| 2026-04-16 15:17 | -37.72789 | 144.89989 | 260 ft | 8 kts | 342° |
| 2026-04-16 15:18 | -37.72765 | 144.89927 | 262 ft | 8 kts | 282° |
| 2026-04-16 15:18 | -37.72745 | 144.89862 | 263 ft | 8 kts | 309° |
| 2026-04-16 15:18 | -37.72724 | 144.89811 | 262 ft | 0 kts | 295° |